createdAt,value
2022-10-28T00:01:26.606Z,10.93
2022-10-28T00:04:00.919Z,10.84
2022-10-28T00:06:35.083Z,10.79
2022-10-28T00:09:11.274Z,10.72
2022-10-28T00:11:44.664Z,10.68
2022-10-28T00:14:16.973Z,10.61
2022-10-28T00:16:49.536Z,10.56
2022-10-28T00:19:21.829Z,10.52
2022-10-28T00:21:54.121Z,10.49
2022-10-28T00:24:27.132Z,10.46
2022-10-28T00:26:59.517Z,10.44
2022-10-28T00:29:31.934Z,10.34
2022-10-28T00:32:04.692Z,10.30
2022-10-28T00:34:37.996Z,10.21
2022-10-28T00:37:10.303Z,10.17
2022-10-28T00:39:43.229Z,10.11
2022-10-28T00:42:20.000Z,10.04
2022-10-28T00:44:55.770Z,10.01
2022-10-28T00:47:43.914Z,9.96
2022-10-28T00:50:30.329Z,9.92
2022-10-28T00:53:06.342Z,9.88
2022-10-28T00:55:39.903Z,9.82
2022-10-28T00:58:12.902Z,9.82
2022-10-28T01:00:45.226Z,9.77
2022-10-28T01:03:17.995Z,9.71
2022-10-28T01:05:51.463Z,9.70
2022-10-28T01:08:23.854Z,9.66
2022-10-28T01:11:31.314Z,9.69
2022-10-28T01:14:17.518Z,9.64
2022-10-28T01:17:08.799Z,9.60
2022-10-28T01:20:21.427Z,9.54
2022-10-28T01:23:00.791Z,9.55
2022-10-28T01:25:59.052Z,9.56
2022-10-28T01:28:53.663Z,9.57
2022-10-28T01:31:36.107Z,9.56
2022-10-28T01:34:17.482Z,9.62
2022-10-28T01:36:59.339Z,9.62
2022-10-28T01:39:37.786Z,9.59
2022-10-28T01:42:19.703Z,9.53
2022-10-28T01:45:01.088Z,9.48
2022-10-28T01:47:40.621Z,9.46
2022-10-28T01:50:24.024Z,9.43
2022-10-28T01:53:00.035Z,9.38
2022-10-28T01:55:37.344Z,9.35
2022-10-28T01:58:13.233Z,9.28
2022-10-28T02:00:46.965Z,9.27
2022-10-28T02:03:20.304Z,9.27
2022-10-28T02:05:55.057Z,9.26
2022-10-28T02:08:49.373Z,9.27
2022-10-28T02:11:53.670Z,9.26
2022-10-28T02:14:40.343Z,9.24
2022-10-28T02:17:20.841Z,9.22
2022-10-28T02:20:06.370Z,9.29
2022-10-28T02:22:49.047Z,9.30
2022-10-28T02:25:25.648Z,9.34
2022-10-28T02:28:01.849Z,9.34
2022-10-28T02:30:43.283Z,9.38
2022-10-28T02:33:19.314Z,9.33
2022-10-28T02:35:55.851Z,9.29
2022-10-28T02:38:33.771Z,9.37
2022-10-28T02:41:13.589Z,9.43
2022-10-28T02:43:47.505Z,9.36
2022-10-28T02:46:21.238Z,9.34
2022-10-28T02:48:56.512Z,9.37
2022-10-28T02:51:34.334Z,9.38
2022-10-28T02:54:10.585Z,9.46
2022-10-28T02:56:51.215Z,9.53
2022-10-28T02:59:25.222Z,9.45
2022-10-28T03:01:57.646Z,9.28
2022-10-28T03:04:30.131Z,9.34
2022-10-28T03:07:03.110Z,9.36
2022-10-28T03:09:35.392Z,9.39
2022-10-28T03:12:07.853Z,9.32
2022-10-28T03:14:40.163Z,9.25
2022-10-28T03:17:12.479Z,9.23
2022-10-28T03:19:44.746Z,9.22
2022-10-28T03:22:17.749Z,9.23
2022-10-28T03:24:50.106Z,9.23
2022-10-28T03:27:22.357Z,9.17
2022-10-28T03:29:54.710Z,9.18
2022-10-28T03:32:27.065Z,9.11
2022-10-28T03:34:59.319Z,9.15
2022-10-28T03:37:32.315Z,9.17
2022-10-28T03:40:07.226Z,9.06
2022-10-28T03:42:41.257Z,9.06
2022-10-28T03:45:13.754Z,9.08
2022-10-28T03:47:47.411Z,9.07
2022-10-28T03:50:19.702Z,9.04
2022-10-28T03:52:52.736Z,8.99
2022-10-28T03:55:25.226Z,8.95
2022-10-28T03:58:00.112Z,8.92
2022-10-28T04:00:32.413Z,8.77
2022-10-28T04:03:04.703Z,8.76
2022-10-28T04:05:37.015Z,8.72
2022-10-28T04:08:10.238Z,8.71
2022-10-28T04:10:47.150Z,8.52
2022-10-28T04:13:19.872Z,8.62
2022-10-28T04:15:52.170Z,8.62
2022-10-28T04:18:24.510Z,8.58
2022-10-28T04:20:56.819Z,8.50
2022-10-28T04:23:29.860Z,8.44
2022-10-28T04:26:02.134Z,8.35
2022-10-28T04:28:34.502Z,8.27
2022-10-28T04:31:06.921Z,8.30
2022-10-28T04:33:39.217Z,8.28
2022-10-28T04:36:11.486Z,8.20
2022-10-28T04:38:44.474Z,8.17
2022-10-28T04:41:16.911Z,8.14
2022-10-28T04:43:49.211Z,8.06
2022-10-28T04:46:21.601Z,7.95
2022-10-28T04:48:53.855Z,7.96
2022-10-28T04:51:26.182Z,7.92
2022-10-28T04:53:59.149Z,7.84
2022-10-28T04:56:32.605Z,7.86
2022-10-28T04:59:05.067Z,7.81
2022-10-28T05:01:37.844Z,7.77
2022-10-28T05:04:10.267Z,7.78
2022-10-28T05:06:42.766Z,7.84
2022-10-28T05:09:15.783Z,7.79
2022-10-28T05:11:48.052Z,7.77
2022-10-28T05:14:20.383Z,7.75
2022-10-28T05:16:52.673Z,7.66
2022-10-28T05:19:25.037Z,7.66
2022-10-28T05:21:57.325Z,7.67
2022-10-28T05:24:30.298Z,7.69
2022-10-28T05:27:02.611Z,7.72
2022-10-28T05:29:34.881Z,7.72
2022-10-28T05:32:07.237Z,7.71
2022-10-28T05:34:39.602Z,7.70
2022-10-28T05:37:11.951Z,7.56
2022-10-28T05:39:44.968Z,7.56
2022-10-28T05:42:17.281Z,7.55
2022-10-28T05:44:49.587Z,7.54
2022-10-28T05:47:21.928Z,7.57
2022-10-28T05:49:54.303Z,7.55
2022-10-28T05:52:26.645Z,7.55
2022-10-28T05:54:59.693Z,7.46
2022-10-28T05:57:33.764Z,7.55
2022-10-28T06:00:07.424Z,7.42
2022-10-28T06:02:44.811Z,7.41
2022-10-28T06:05:17.573Z,7.41
2022-10-28T06:07:49.887Z,7.38
2022-10-28T06:10:22.913Z,7.41
2022-10-28T06:12:54.145Z,7.46
2022-10-28T06:15:26.740Z,7.52
2022-10-28T06:17:59.043Z,7.60
2022-10-28T06:20:31.379Z,7.66
2022-10-28T06:23:03.675Z,7.74
2022-10-28T06:25:36.794Z,7.80
2022-10-28T06:28:10.431Z,7.85
2022-10-28T06:30:42.928Z,8.05
2022-10-28T06:33:15.243Z,8.20
2022-10-28T06:35:47.542Z,8.37
2022-10-28T06:38:19.834Z,8.53
2022-10-28T06:40:52.990Z,8.68
2022-10-28T06:43:25.345Z,8.86
2022-10-28T06:46:00.116Z,9.00
2022-10-28T06:48:33.961Z,9.11
2022-10-28T06:51:06.302Z,9.21
2022-10-28T06:53:38.654Z,9.33
2022-10-28T07:00:09.702Z,9.69
2022-10-28T07:02:45.087Z,9.76
2022-10-28T07:05:17.722Z,9.97
2022-10-28T07:07:50.143Z,10.17
2022-10-28T07:10:22.433Z,10.28
2022-10-28T07:12:54.946Z,10.46
2022-10-28T07:15:28.173Z,10.60
2022-10-28T07:18:01.214Z,10.83
2022-10-28T07:20:33.530Z,10.96
2022-10-28T07:23:05.832Z,11.24
2022-10-28T07:25:38.314Z,11.32
2022-10-28T07:28:10.844Z,11.50
2022-10-28T07:30:43.870Z,11.59
2022-10-28T07:33:16.344Z,11.77
2022-10-28T07:35:48.736Z,11.89
2022-10-28T07:38:21.827Z,12.11
2022-10-28T07:40:54.193Z,12.16
2022-10-28T07:43:26.556Z,12.31
2022-10-28T07:46:00.008Z,12.26
2022-10-28T07:48:32.513Z,12.37
2022-10-28T07:51:07.092Z,12.32
2022-10-28T07:53:39.765Z,12.51
2022-10-28T07:56:13.229Z,12.68
2022-10-28T07:58:45.570Z,12.74
2022-10-28T08:01:20.767Z,12.92
2022-10-28T08:03:53.291Z,13.09
2022-10-28T08:06:25.732Z,13.13
2022-10-28T08:08:58.410Z,13.23
2022-10-28T08:11:30.782Z,13.43
2022-10-28T08:14:03.463Z,13.26
2022-10-28T08:16:36.430Z,13.56
2022-10-28T08:19:10.697Z,13.52
2022-10-28T08:21:43.033Z,13.39
2022-10-28T08:24:15.551Z,13.44
2022-10-28T08:26:47.876Z,13.38
2022-10-28T08:29:20.218Z,13.46
2022-10-28T08:31:53.214Z,13.32
2022-10-28T08:34:28.684Z,13.42
2022-10-28T08:37:01.109Z,13.34
2022-10-28T08:39:33.454Z,13.35
2022-10-28T08:42:23.325Z,13.46
2022-10-28T08:45:17.304Z,13.69
2022-10-28T08:48:11.418Z,13.70
2022-10-28T08:50:48.963Z,13.80
2022-10-28T08:53:26.630Z,14.06
2022-10-28T08:56:09.802Z,14.17
2022-10-28T08:58:44.857Z,14.19
2022-10-28T09:01:30.466Z,14.11
2022-10-28T09:04:12.464Z,14.31
2022-10-28T09:06:44.832Z,14.49
2022-10-28T09:09:19.986Z,14.47
2022-10-28T09:12:05.053Z,14.55
2022-10-28T09:14:52.250Z,14.56
2022-10-28T09:17:32.807Z,14.58
2022-10-28T09:20:18.110Z,14.56
2022-10-28T09:22:56.480Z,14.63
2022-10-28T09:25:38.746Z,14.79
2022-10-28T09:28:26.994Z,14.72
2022-10-28T09:31:08.158Z,14.80
2022-10-28T09:33:55.498Z,14.67
2022-10-28T09:36:32.689Z,14.79
2022-10-28T09:39:06.206Z,14.81
2022-10-28T09:41:41.174Z,14.96
2022-10-28T09:44:18.700Z,15.14
2022-10-28T09:46:54.769Z,15.35
2022-10-28T09:49:33.071Z,15.34
2022-10-28T09:52:16.123Z,15.40
2022-10-28T09:54:50.708Z,15.52
2022-10-28T09:57:30.575Z,15.59
2022-10-28T10:00:03.412Z,15.54
2022-10-28T10:02:42.609Z,15.76
2022-10-28T10:05:18.288Z,15.87
2022-10-28T10:07:55.940Z,15.84
2022-10-28T10:10:34.169Z,16.09
2022-10-28T10:13:08.804Z,16.33
2022-10-28T10:15:45.032Z,16.48
2022-10-28T10:18:22.321Z,16.62
2022-10-28T10:20:57.849Z,16.61
2022-10-28T10:23:32.865Z,16.70
2022-10-28T10:26:11.295Z,16.68
2022-10-28T10:28:46.296Z,16.72
2022-10-28T10:31:21.020Z,16.68
2022-10-28T10:33:55.659Z,16.70
2022-10-28T10:36:30.646Z,16.81
2022-10-28T10:39:03.896Z,16.88
2022-10-28T10:41:37.929Z,17.06
2022-10-28T10:44:32.191Z,17.24
2022-10-28T10:47:20.327Z,17.36
2022-10-28T10:49:54.320Z,17.51
2022-10-28T10:52:27.722Z,17.37
2022-10-28T10:55:04.818Z,17.37
2022-10-28T10:57:37.218Z,17.48
2022-10-28T11:00:16.786Z,17.44
2022-10-28T11:02:52.253Z,17.48
2022-10-28T11:05:35.595Z,17.72
2022-10-28T11:08:37.016Z,17.66
2022-10-28T11:11:13.712Z,17.71
2022-10-28T11:13:47.087Z,18.05
2022-10-28T11:16:21.620Z,18.02
2022-10-28T11:18:54.041Z,18.08
2022-10-28T11:21:48.483Z,18.07
2022-10-28T11:24:39.640Z,18.06
2022-10-28T11:27:25.455Z,18.01
2022-10-28T11:30:00.217Z,18.29
2022-10-28T11:33:01.899Z,18.76
2022-10-28T11:35:57.961Z,19.03
2022-10-28T11:38:54.042Z,18.95
2022-10-28T11:41:37.189Z,19.21
2022-10-28T11:44:23.641Z,19.22
2022-10-28T11:47:09.483Z,19.23
2022-10-28T11:50:17.756Z,19.36
2022-10-28T11:53:10.364Z,19.27
2022-10-28T11:55:47.939Z,19.21
2022-10-28T11:58:32.192Z,19.28
2022-10-28T12:01:20.559Z,19.18
2022-10-28T12:04:20.288Z,18.95
2022-10-28T12:07:13.119Z,19.03
2022-10-28T12:09:57.408Z,19.05
2022-10-28T12:12:41.116Z,19.20
2022-10-28T12:15:21.533Z,18.98
2022-10-28T12:18:00.318Z,19.08
2022-10-28T12:20:38.729Z,19.15
2022-10-28T12:23:13.882Z,19.22
2022-10-28T12:25:49.485Z,19.48
2022-10-28T12:28:27.584Z,19.71
2022-10-28T12:31:01.901Z,19.93
2022-10-28T12:33:39.862Z,19.84
2022-10-28T12:36:28.521Z,20.01
2022-10-28T12:39:09.189Z,20.39
2022-10-28T12:41:49.931Z,20.65
2022-10-28T12:44:24.331Z,20.33
2022-10-28T12:47:19.005Z,20.45
2022-10-28T12:50:02.274Z,20.45
2022-10-28T12:52:41.560Z,20.32
2022-10-28T12:55:25.419Z,20.08
2022-10-28T12:58:02.226Z,19.84
2022-10-28T13:00:37.384Z,19.84
2022-10-28T13:03:12.814Z,19.80
2022-10-28T13:05:51.477Z,19.98
2022-10-28T13:09:07.162Z,19.53
2022-10-28T13:12:23.373Z,19.47
2022-10-28T13:15:20.532Z,19.19
2022-10-28T13:18:10.620Z,19.19
2022-10-28T13:20:52.998Z,19.06
2022-10-28T13:23:35.992Z,19.01
2022-10-28T13:26:21.345Z,18.95
2022-10-28T13:28:56.468Z,19.12
2022-10-28T13:31:40.616Z,19.14
2022-10-28T13:34:14.715Z,19.00
2022-10-28T13:36:57.651Z,19.06
2022-10-28T13:39:43.214Z,19.14
2022-10-28T13:42:45.271Z,19.03
2022-10-28T13:45:47.717Z,19.38
2022-10-28T13:48:53.102Z,19.44
2022-10-28T13:51:45.261Z,19.47
2022-10-28T13:54:26.852Z,19.27
2022-10-28T13:57:12.154Z,19.29
2022-10-28T13:59:52.128Z,18.97
2022-10-28T14:02:34.984Z,18.81
2022-10-28T14:05:10.161Z,19.01
2022-10-28T14:07:53.224Z,19.01
2022-10-28T14:10:28.303Z,18.89
2022-10-28T14:13:03.430Z,19.01
2022-10-28T14:15:38.105Z,18.79
2022-10-28T14:18:43.445Z,18.94
2022-10-28T14:21:15.879Z,19.00
2022-10-28T14:24:30.407Z,19.15
2022-10-28T14:27:31.229Z,19.05
2022-10-28T14:30:21.825Z,19.08
2022-10-28T14:33:16.411Z,19.11
2022-10-28T14:36:00.880Z,18.88
2022-10-28T14:39:20.627Z,18.59
2022-10-28T14:42:09.008Z,18.23
2022-10-28T14:44:59.344Z,18.15
2022-10-28T14:47:55.734Z,18.10
2022-10-28T14:50:37.868Z,18.17
2022-10-28T14:53:18.311Z,18.20
2022-10-28T14:55:58.792Z,18.22
2022-10-28T14:58:37.235Z,18.25
2022-10-28T15:01:26.145Z,18.30
2022-10-28T15:04:01.453Z,18.26
2022-10-28T15:06:40.320Z,18.11
2022-10-28T15:09:19.356Z,18.14
2022-10-28T15:11:55.425Z,17.92
2022-10-28T15:14:30.905Z,17.90
2022-10-28T15:17:12.189Z,17.69
2022-10-28T15:19:45.741Z,17.67
2022-10-28T15:22:20.958Z,17.61
2022-10-28T15:24:58.448Z,17.40
2022-10-28T15:27:32.810Z,17.27
2022-10-28T15:30:14.360Z,17.22
2022-10-28T15:32:47.435Z,17.02
2022-10-28T15:35:39.160Z,16.85
2022-10-28T15:38:42.030Z,16.60
2022-10-28T15:41:41.412Z,16.46
2022-10-28T15:44:27.030Z,16.39
2022-10-28T15:47:02.026Z,16.36
2022-10-28T15:49:38.063Z,16.34
2022-10-28T15:52:32.688Z,16.24
2022-10-28T15:55:35.652Z,16.27
2022-10-28T15:58:33.317Z,16.21
2022-10-28T16:01:09.410Z,16.15
2022-10-28T16:03:44.285Z,16.10
2022-10-28T16:06:26.585Z,16.04
2022-10-28T16:09:06.015Z,16.01
2022-10-28T16:11:42.300Z,15.92
2022-10-28T16:14:32.197Z,15.89
2022-10-28T16:17:14.530Z,15.84
2022-10-28T16:19:53.153Z,15.69
2022-10-28T16:22:28.822Z,15.57
2022-10-28T16:25:01.288Z,15.46
2022-10-28T16:27:33.616Z,15.24
2022-10-28T16:30:06.900Z,15.24
2022-10-28T16:32:41.301Z,15.21
2022-10-28T16:35:15.565Z,15.23
2022-10-28T16:37:54.645Z,15.14
2022-10-28T16:43:22.405Z,14.89
2022-10-28T16:45:56.594Z,14.53
2022-10-28T16:48:30.275Z,14.28
2022-10-28T16:51:05.701Z,14.04
2022-10-28T16:53:38.691Z,14.15
2022-10-28T16:56:13.888Z,14.05
2022-10-28T16:58:48.049Z,14.08
2022-10-28T17:01:21.865Z,14.06
2022-10-28T17:03:54.185Z,13.88
2022-10-28T17:06:26.518Z,13.84
2022-10-28T17:09:03.765Z,13.78
2022-10-28T17:11:36.436Z,13.67
2022-10-28T17:14:08.751Z,13.73
2022-10-28T17:16:43.301Z,13.69
2022-10-28T17:19:16.058Z,13.64
2022-10-28T17:21:48.342Z,13.65
2022-10-28T17:24:21.562Z,13.52
2022-10-28T17:26:53.898Z,13.38
2022-10-28T17:29:26.325Z,13.34
2022-10-28T17:31:58.660Z,13.35
2022-10-28T17:34:30.957Z,13.29
2022-10-28T17:37:04.078Z,13.20
2022-10-28T17:39:37.445Z,13.26
2022-10-28T17:42:09.841Z,13.38
2022-10-28T17:44:42.192Z,13.34
2022-10-28T17:47:14.525Z,13.27
2022-10-28T17:49:46.847Z,13.08
2022-10-28T17:52:19.224Z,13.02
2022-10-28T17:54:52.658Z,12.97
2022-10-28T17:57:25.030Z,13.07
2022-10-28T17:59:57.428Z,13.10
2022-10-28T18:02:29.816Z,13.20
2022-10-28T18:05:02.332Z,13.20
2022-10-28T18:07:34.960Z,13.21
2022-10-28T18:10:09.397Z,13.11
2022-10-28T18:12:41.844Z,13.19
2022-10-28T18:15:14.193Z,13.16
2022-10-28T18:17:49.041Z,13.12
2022-10-28T18:20:21.340Z,13.14
2022-10-28T18:22:53.879Z,13.13
2022-10-28T18:25:27.064Z,13.09
2022-10-28T18:27:59.443Z,13.02
2022-10-28T18:30:32.108Z,13.01
2022-10-28T18:33:04.432Z,13.00
2022-10-28T18:35:36.809Z,12.96
2022-10-28T18:38:09.240Z,12.92
2022-10-28T18:40:46.430Z,12.87
2022-10-28T18:43:20.953Z,12.73
2022-10-28T18:45:53.534Z,12.72
2022-10-28T18:48:25.911Z,12.65
2022-10-28T18:51:00.258Z,12.61
2022-10-28T18:53:35.258Z,12.54
2022-10-28T18:56:11.185Z,12.41
2022-10-28T18:58:43.824Z,12.28
2022-10-28T19:01:18.161Z,12.18
2022-10-28T19:03:52.776Z,12.07
2022-10-28T19:06:29.044Z,12.03
2022-10-28T19:09:03.743Z,11.99
2022-10-28T19:11:36.856Z,11.93
2022-10-28T19:14:09.629Z,11.88
2022-10-28T19:16:41.969Z,11.80
2022-10-28T19:19:14.325Z,11.75
2022-10-28T19:21:46.719Z,11.70
2022-10-28T19:24:19.221Z,11.63
2022-10-28T19:26:52.247Z,11.60
2022-10-28T19:29:24.637Z,11.52
2022-10-28T19:31:56.945Z,11.45
2022-10-28T19:34:29.498Z,11.35
2022-10-28T19:37:01.891Z,11.27
2022-10-28T19:39:34.353Z,11.22
2022-10-28T19:42:07.388Z,11.11
2022-10-28T19:44:39.803Z,11.05
2022-10-28T19:47:12.161Z,10.88
2022-10-28T19:49:44.610Z,10.82
2022-10-28T19:52:17.035Z,10.79
2022-10-28T19:54:49.357Z,10.71
2022-10-28T19:57:22.329Z,10.64
2022-10-28T19:59:54.582Z,10.58
2022-10-28T20:02:26.988Z,10.50
2022-10-28T20:04:59.452Z,10.47
2022-10-28T20:07:31.816Z,10.43
2022-10-28T20:10:04.765Z,10.43
2022-10-28T20:12:37.797Z,10.40
2022-10-28T20:15:10.512Z,10.37
2022-10-28T20:17:42.848Z,10.36
2022-10-28T20:20:15.227Z,10.31
2022-10-28T20:22:47.523Z,10.31
2022-10-28T20:25:19.834Z,10.23
2022-10-28T20:27:53.175Z,10.14
2022-10-28T20:30:25.746Z,10.13
2022-10-28T20:32:58.029Z,10.02
2022-10-28T20:35:33.196Z,10.00
2022-10-28T20:40:47.601Z,9.91
2022-10-28T20:43:21.921Z,9.91
2022-10-28T20:45:55.833Z,9.91
2022-10-28T20:48:29.484Z,9.84
2022-10-28T20:51:02.280Z,9.74
2022-10-28T20:53:34.928Z,9.72
2022-10-28T20:56:08.002Z,9.71
2022-10-28T20:58:40.981Z,9.68
2022-10-28T21:01:15.909Z,9.65
2022-10-28T21:03:49.258Z,9.59
2022-10-28T21:06:22.453Z,9.50
2022-10-28T21:08:55.875Z,9.42
2022-10-28T21:11:28.719Z,9.35
2022-10-28T21:14:02.088Z,9.34
2022-10-28T21:16:34.448Z,9.32
2022-10-28T21:19:06.766Z,9.32
2022-10-28T21:21:39.012Z,9.31
2022-10-28T21:24:11.420Z,9.33
2022-10-28T21:26:47.126Z,9.34
2022-10-28T21:29:21.407Z,9.35
2022-10-28T21:31:53.712Z,9.28
2022-10-28T21:34:26.021Z,9.29
2022-10-28T21:36:58.308Z,9.24
2022-10-28T21:39:30.590Z,9.19
2022-10-28T21:42:02.948Z,9.15
2022-10-28T21:44:35.897Z,9.13
2022-10-28T21:47:08.199Z,9.08
2022-10-28T21:49:40.580Z,9.00
2022-10-28T21:52:12.863Z,8.97
2022-10-28T21:54:45.184Z,9.00
2022-10-28T21:57:17.530Z,8.99
2022-10-28T21:59:50.533Z,8.90
2022-10-28T22:02:22.937Z,8.90
2022-10-28T22:04:55.303Z,8.84
2022-10-28T22:07:27.576Z,8.80
2022-10-28T22:09:59.912Z,8.78
2022-10-28T22:12:32.222Z,8.70
2022-10-28T22:15:06.484Z,8.71
2022-10-28T22:17:39.036Z,8.62
2022-10-28T22:20:11.351Z,8.59
2022-10-28T22:22:43.671Z,8.53
2022-10-28T22:25:16.057Z,8.49
2022-10-28T22:27:48.317Z,8.44
2022-10-28T22:30:21.268Z,8.40
2022-10-28T22:32:53.800Z,8.36
2022-10-28T22:35:26.202Z,8.31
2022-10-28T22:37:58.547Z,8.25
2022-10-28T22:40:30.932Z,8.25
2022-10-28T22:43:03.264Z,8.26
2022-10-28T22:45:36.214Z,8.20
2022-10-28T22:48:08.853Z,8.06
2022-10-28T22:50:42.299Z,8.02
2022-10-28T22:53:14.592Z,8.02
2022-10-28T22:55:47.642Z,8.01
2022-10-28T22:58:20.297Z,8.01
2022-10-28T23:00:53.461Z,8.00
2022-10-28T23:03:25.775Z,7.93
2022-10-28T23:05:58.068Z,7.92
2022-10-28T23:08:30.393Z,7.80
2022-10-28T23:11:02.706Z,7.80
2022-10-28T23:16:15.335Z,7.71
2022-10-28T23:18:48.082Z,7.63
2022-10-28T23:21:21.925Z,7.55
2022-10-28T23:23:55.359Z,7.45
2022-10-28T23:26:28.732Z,7.46
2022-10-28T23:29:01.046Z,7.41
2022-10-28T23:31:34.047Z,7.40
2022-10-28T23:34:06.473Z,7.35
2022-10-28T23:36:39.418Z,7.28
2022-10-28T23:39:11.755Z,7.33
2022-10-28T23:41:44.029Z,7.30
2022-10-28T23:44:16.287Z,7.25
2022-10-28T23:46:49.748Z,7.22
2022-10-28T23:49:22.039Z,7.18
2022-10-28T23:51:54.362Z,7.04
2022-10-28T23:54:26.704Z,7.07
2022-10-28T23:56:59.041Z,6.98
2022-10-28T23:59:31.400Z,6.96
